Andover, Iowa
Current Conditions -  °F | °C
As of 11:15 AM on Friday 28 Nov 2014 (Local Time) from KSFY Reporting Station
Overcast Overcast  
Wind Chill: 16°   Ceiling: 11000
Heat Index: 27°   Visibility: 10mi
Dew Point: 20°   Wind: 13mph
Humidity: 74%   Direction: 140°SE
Pressure: 30.04"   Gusts: NA
Location:  41.98°N, 90.25°W
Report Text: KSFY 281715Z AUTO 14011KT 10SM OVC110 M03/M07 A3004 RMK AO2 T10271068
Loading
Personal Weather Stations






























Interactive Weather Map New forecast layout! Learn more

10-Day Weather Forecast

Advertisements
Track Severe Weather on mobile